createdAt,value
2018-02-27T00:00:26.742Z,1021.93
2018-02-27T00:03:17.161Z,1021.94
2018-02-27T00:06:08.133Z,1021.91
2018-02-27T00:08:57.221Z,1021.92
2018-02-27T00:10:59.502Z,1021.87
2018-02-27T00:13:57.023Z,1021.84
2018-02-27T00:15:59.629Z,1021.82
2018-02-27T00:18:48.806Z,1021.80
2018-02-27T00:21:37.740Z,1021.81
2018-02-27T00:24:34.842Z,1021.80
2018-02-27T00:27:23.109Z,1021.80
2018-02-27T00:29:25.451Z,1021.78
2018-02-27T00:32:22.469Z,1021.76
2018-02-27T00:35:13.953Z,1021.73
2018-02-27T00:38:05.455Z,1021.75
2018-02-27T00:40:08.100Z,1021.75
2018-02-27T00:42:57.607Z,1021.73
2018-02-27T00:44:59.942Z,1021.71
2018-02-27T00:47:57.036Z,1021.68
2018-02-27T00:49:59.177Z,1021.66
2018-02-27T00:52:58.062Z,1021.64
2018-02-27T00:55:49.263Z,1021.60
2018-02-27T00:58:44.609Z,1021.56
2018-02-27T01:00:46.656Z,1021.59
2018-02-27T01:02:48.642Z,1021.57
2018-02-27T01:04:50.775Z,1021.52
2018-02-27T01:07:56.746Z,1021.48
2018-02-27T01:10:47.247Z,1021.50
2018-02-27T01:12:49.983Z,1021.51
2018-02-27T01:15:45.238Z,1021.50
2018-02-27T01:18:36.818Z,1021.50
2018-02-27T01:21:26.543Z,1021.48
2018-02-27T01:24:16.426Z,1021.46
2018-02-27T01:26:19.290Z,1021.48
2018-02-27T01:28:21.767Z,1021.47
2018-02-27T01:30:24.364Z,1021.44
2018-02-27T01:33:15.062Z,1021.45
2018-02-27T01:35:17.919Z,1021.40
2018-02-27T01:37:20.049Z,1021.40
2018-02-27T01:39:22.723Z,1021.40
2018-02-27T01:41:25.010Z,1021.38
2018-02-27T01:43:27.457Z,1021.33
2018-02-27T01:45:29.434Z,1021.32
2018-02-27T01:48:25.004Z,1021.28
2018-02-27T01:51:15.172Z,1021.28
2018-02-27T01:54:15.323Z,1021.27
2018-02-27T01:57:11.620Z,1021.21
2018-02-27T01:59:13.636Z,1021.17
2018-02-27T02:02:06.120Z,1021.13
2018-02-27T02:04:08.427Z,1021.11
2018-02-27T02:06:58.233Z,1021.10
2018-02-27T02:09:47.879Z,1021.14
2018-02-27T02:12:38.451Z,1021.15
2018-02-27T02:14:40.559Z,1021.13
2018-02-27T02:17:34.913Z,1021.10
2018-02-27T02:20:26.419Z,1021.03
2018-02-27T02:23:18.740Z,1020.99
2018-02-27T02:26:11.410Z,1020.98
2018-02-27T02:29:01.941Z,1020.96
2018-02-27T02:31:04.157Z,1020.87
2018-02-27T02:33:07.112Z,1020.81
2018-02-27T02:35:09.202Z,1020.79
2018-02-27T02:38:08.519Z,1020.72
2018-02-27T02:40:59.273Z,1020.72
2018-02-27T02:43:54.910Z,1020.67
2018-02-27T02:46:44.323Z,1020.58
2018-02-27T02:48:47.010Z,1020.59
2018-02-27T02:51:37.479Z,1020.53
2018-02-27T02:53:40.024Z,1020.45
2018-02-27T02:55:42.778Z,1020.46
2018-02-27T02:58:34.984Z,1020.45
2018-02-27T03:00:37.374Z,1020.46
2018-02-27T03:02:39.489Z,1020.50
2018-02-27T03:04:41.656Z,1020.48
2018-02-27T03:06:43.815Z,1020.50
2018-02-27T03:09:34.497Z,1020.48
2018-02-27T03:12:26.968Z,1020.44
2018-02-27T03:15:18.539Z,1020.47
2018-02-27T03:17:20.371Z,1020.46
2018-02-27T03:19:22.507Z,1020.44
2018-02-27T03:21:25.226Z,1020.40
2018-02-27T03:23:27.661Z,1020.38
2018-02-27T03:25:30.207Z,1020.37
2018-02-27T03:27:32.140Z,1020.33
2018-02-27T03:29:34.480Z,1020.36
2018-02-27T03:31:36.735Z,1020.36
2018-02-27T03:33:38.940Z,1020.35
2018-02-27T03:35:41.184Z,1020.31
2018-02-27T03:37:43.240Z,1020.35
2018-02-27T03:39:46.458Z,1020.34
2018-02-27T03:42:39.218Z,1020.37
2018-02-27T03:44:41.345Z,1020.33
2018-02-27T03:46:44.039Z,1020.36
2018-02-27T03:48:46.125Z,1020.31
2018-02-27T03:50:48.358Z,1020.26
2018-02-27T03:52:51.240Z,1020.26
2018-02-27T03:54:53.970Z,1020.21
2018-02-27T03:56:56.049Z,1020.21
2018-02-27T03:58:58.377Z,1020.23
2018-02-27T04:01:01.272Z,1020.21
2018-02-27T04:04:04.049Z,1020.17
2018-02-27T07:37:42.047Z,1020.11
2018-02-27T07:40:30.564Z,1020.10
2018-02-27T07:43:18.156Z,1020.03
2018-02-27T07:46:04.007Z,1020.08
2018-02-27T07:48:50.494Z,1020.05
2018-02-27T07:51:36.542Z,1020.05
2018-02-27T07:54:24.900Z,1020.05
2018-02-27T07:57:16.431Z,1020.08
2018-02-27T08:00:03.162Z,1020.12
2018-02-27T08:02:48.299Z,1020.03
2018-02-27T08:05:33.101Z,1019.99
2018-02-27T08:08:16.563Z,1019.99
2018-02-27T08:11:00.713Z,1020.07
2018-02-27T08:13:03.443Z,1020.04
2018-02-27T08:15:05.053Z,1020.00
2018-02-27T08:17:07.082Z,1019.99
2018-02-27T08:19:09.447Z,1020.03
2018-02-27T08:21:11.525Z,1020.09
2018-02-27T08:23:13.558Z,1020.08
2018-02-27T08:25:15.399Z,1020.03
2018-02-27T08:27:17.436Z,1020.07
2018-02-27T08:29:19.309Z,1020.00
2018-02-27T08:31:21.340Z,1019.99
2018-02-27T08:33:23.139Z,1020.04
2018-02-27T08:36:08.594Z,1020.03
2018-02-27T08:38:10.608Z,1020.09
2018-02-27T08:40:12.510Z,1020.05
2018-02-27T08:42:14.327Z,1020.12
2018-02-27T08:44:16.383Z,1020.04
2018-02-27T08:47:00.373Z,1020.02
2018-02-27T08:49:02.920Z,1019.93
2018-02-27T08:51:04.953Z,1020.01
2018-02-27T08:53:06.652Z,1019.96
2018-02-27T08:55:08.713Z,1019.92
2018-02-27T08:57:10.404Z,1019.85
2018-02-27T08:59:12.590Z,1019.91
2018-02-27T09:01:14.723Z,1019.84
2018-02-27T09:03:16.633Z,1019.82
2018-02-27T09:06:41.455Z,1019.80
2018-02-27T09:09:27.262Z,1019.80
2018-02-27T09:12:13.996Z,1019.74
2018-02-27T09:14:58.196Z,1019.71
2018-02-27T09:17:00.767Z,1019.72
2018-02-27T09:19:02.694Z,1019.72
2018-02-27T09:21:48.262Z,1019.69
2018-02-27T09:23:49.964Z,1019.60
2018-02-27T09:26:36.799Z,1019.52
2018-02-27T09:29:22.101Z,1019.51
2018-02-27T09:32:08.266Z,1019.52
2018-02-27T09:34:52.941Z,1019.46
2018-02-27T09:37:38.880Z,1019.46
2018-02-27T09:40:22.132Z,1019.38
2018-02-27T09:42:24.025Z,1019.33
2018-02-27T09:44:25.641Z,1019.29
2018-02-27T09:47:08.872Z,1019.27
2018-02-27T09:49:54.094Z,1019.32
2018-02-27T09:52:38.486Z,1019.29
2018-02-27T09:55:21.205Z,1019.32
2018-02-27T09:57:22.665Z,1019.31
2018-02-27T10:00:06.179Z,1019.29
2018-02-27T10:02:48.761Z,1019.35
2018-02-27T10:05:32.946Z,1019.29
2018-02-27T10:08:15.744Z,1019.24
2018-02-27T10:10:58.811Z,1019.23
2018-02-27T10:13:41.727Z,1019.20
2018-02-27T10:16:23.287Z,1019.18
2018-02-27T10:19:05.968Z,1019.15
2018-02-27T10:21:08.372Z,1019.12
2018-02-27T10:24:32.341Z,1019.23
2018-02-27T10:27:15.166Z,1019.08
2018-02-27T10:29:17.259Z,1019.15
2018-02-27T10:31:18.586Z,1019.16
2018-02-27T10:34:03.279Z,1019.12
2018-02-27T10:36:45.740Z,1019.09
2018-02-27T10:39:30.793Z,1019.09
2018-02-27T10:42:14.469Z,1019.09
2018-02-27T10:44:57.521Z,1019.09
2018-02-27T10:47:40.944Z,1019.05
2018-02-27T10:50:23.735Z,1019.01
2018-02-27T10:52:25.536Z,1019.02
2018-02-27T10:54:27.010Z,1018.97
2018-02-27T10:57:10.046Z,1018.94
2018-02-27T10:59:13.870Z,1018.94
2018-02-27T11:01:56.486Z,1018.94
2018-02-27T11:04:40.736Z,1018.91
2018-02-27T11:06:42.443Z,1018.96
2018-02-27T11:09:27.274Z,1018.89
2018-02-27T11:12:11.179Z,1018.89
2018-02-27T11:14:55.589Z,1018.88
2018-02-27T11:16:56.860Z,1018.86
2018-02-27T11:20:21.402Z,1018.85
2018-02-27T11:23:04.247Z,1018.77
2018-02-27T11:25:48.754Z,1018.75
2018-02-27T11:28:34.144Z,1018.73
2018-02-27T11:31:19.346Z,1018.67
2018-02-27T11:34:07.715Z,1018.62
2018-02-27T11:36:58.800Z,1018.59
2018-02-27T11:39:41.398Z,1018.59
2018-02-27T11:42:25.810Z,1018.58
2018-02-27T11:45:16.034Z,1018.53
2018-02-27T11:47:58.877Z,1018.44
2018-02-27T11:50:43.794Z,1018.44
2018-02-27T11:53:28.521Z,1018.36
2018-02-27T11:56:11.886Z,1018.37
2018-02-27T11:58:57.565Z,1018.44
2018-02-27T12:01:42.673Z,1018.32
2018-02-27T12:04:25.577Z,1018.31
2018-02-27T12:07:25.259Z,1018.29
2018-02-27T12:10:10.619Z,1018.27
2018-02-27T12:12:54.123Z,1018.28
2018-02-27T12:15:43.303Z,1018.23
2018-02-27T12:17:44.973Z,1018.25
2018-02-27T12:20:37.042Z,1018.18
2018-02-27T12:23:24.320Z,1018.18
2018-02-27T12:26:10.929Z,1018.17
2018-02-27T12:28:57.316Z,1018.15
2018-02-27T12:31:50.537Z,1018.11
2018-02-27T12:34:33.997Z,1018.07
2018-02-27T12:37:17.224Z,1018.01
2018-02-27T12:40:05.114Z,1017.98
2018-02-27T12:42:51.724Z,1017.99
2018-02-27T12:45:37.042Z,1017.99
2018-02-27T12:48:21.181Z,1018.00
2018-02-27T12:51:04.372Z,1017.96
2018-02-27T12:53:50.520Z,1017.97
2018-02-27T12:56:37.004Z,1017.93
2018-02-27T12:59:23.050Z,1017.92
2018-02-27T13:02:07.370Z,1017.81
2018-02-27T13:04:51.564Z,1017.85
2018-02-27T13:07:43.658Z,1017.79
2018-02-27T13:10:25.584Z,1017.75
2018-02-27T13:13:10.556Z,1017.73
2018-02-27T13:15:54.684Z,1017.65
2018-02-27T13:18:37.656Z,1017.59
2018-02-27T13:21:20.290Z,1017.55
2018-02-27T13:24:05.217Z,1017.50
2018-02-27T13:26:50.200Z,1017.47
2018-02-27T13:29:33.064Z,1017.48
2018-02-27T13:32:17.091Z,1017.46
2018-02-27T13:35:01.875Z,1017.41
2018-02-27T13:37:48.069Z,1017.41
2018-02-27T13:40:51.850Z,1017.35
2018-02-27T13:44:00.254Z,1017.31
2018-02-27T13:46:43.484Z,1017.30
2018-02-27T13:49:32.162Z,1017.25
2018-02-27T13:52:15.232Z,1017.16
2018-02-27T13:55:01.597Z,1017.16
2018-02-27T13:57:44.642Z,1017.09
2018-02-27T14:00:32.321Z,1017.06
2018-02-27T14:03:18.758Z,1017.05
2018-02-27T14:06:01.660Z,1017.01
2018-02-27T14:08:59.590Z,1016.93
2018-02-27T14:11:57.558Z,1016.90
2018-02-27T14:14:45.416Z,1016.89
2018-02-27T14:17:28.387Z,1016.86
2018-02-27T14:20:12.867Z,1016.82
2018-02-27T14:22:57.848Z,1016.77
2018-02-27T14:25:46.529Z,1016.77
2018-02-27T14:28:33.166Z,1016.77
2018-02-27T14:31:17.774Z,1016.77
2018-02-27T14:34:00.844Z,1016.73
2018-02-27T14:36:48.430Z,1016.70
2018-02-27T14:39:37.759Z,1016.69
2018-02-27T14:42:21.489Z,1016.64
2018-02-27T14:45:09.320Z,1016.66
2018-02-27T14:47:56.950Z,1016.59
2018-02-27T14:50:45.238Z,1016.58
2018-02-27T14:53:28.530Z,1016.59
2018-02-27T14:56:17.447Z,1016.58
2018-02-27T14:59:07.698Z,1016.51
2018-02-27T15:01:49.889Z,1016.44
2018-02-27T15:04:36.371Z,1016.44
2018-02-27T15:07:19.619Z,1016.45
2018-02-27T15:10:03.782Z,1016.44
2018-02-27T15:12:46.572Z,1016.42
2018-02-27T15:15:32.064Z,1016.43
2018-02-27T15:18:19.532Z,1016.41
2018-02-27T15:21:08.990Z,1016.47
2018-02-27T15:23:55.443Z,1016.44
2018-02-27T15:26:38.419Z,1016.34
2018-02-27T15:29:22.781Z,1016.32
2018-02-27T15:32:07.251Z,1016.32
2018-02-27T15:34:52.554Z,1016.30
2018-02-27T15:37:36.508Z,1016.27
2018-02-27T15:40:20.617Z,1016.26
2018-02-27T15:43:07.891Z,1016.24
2018-02-27T15:45:56.573Z,1016.20
2018-02-27T15:48:44.576Z,1016.21
2018-02-27T15:51:28.088Z,1016.17
2018-02-27T15:54:11.216Z,1016.19
2018-02-27T15:56:58.516Z,1016.15
2018-02-27T15:59:42.422Z,1016.12
2018-02-27T16:02:29.201Z,1016.13
2018-02-27T16:05:17.119Z,1016.10
2018-02-27T16:08:06.163Z,1016.10
2018-02-27T16:10:53.773Z,1016.07
2018-02-27T16:13:44.415Z,1016.10
2018-02-27T16:16:34.296Z,1016.08
2018-02-27T16:19:17.178Z,1016.18
2018-02-27T16:22:08.298Z,1016.14
2018-02-27T16:24:55.137Z,1016.21
2018-02-27T16:27:39.543Z,1016.18
2018-02-27T16:30:30.862Z,1016.21
2018-02-27T16:33:19.210Z,1016.24
2018-02-27T16:36:18.133Z,1016.22
2018-02-27T16:39:03.338Z,1016.29
2018-02-27T16:41:50.071Z,1016.29
2018-02-27T16:45:24.838Z,1016.29
2018-02-27T16:48:18.307Z,1016.34
2018-02-27T16:51:01.332Z,1016.39
2018-02-27T16:53:45.117Z,1016.35
2018-02-27T16:56:35.951Z,1016.36
2018-02-27T16:58:39.749Z,1016.44
2018-02-27T17:01:31.396Z,1016.43
2018-02-27T17:45:42.948Z,1016.54
2018-02-27T17:48:28.805Z,1016.55
2018-02-27T17:51:12.231Z,1016.54
2018-02-27T17:53:16.562Z,1016.54
2018-02-27T17:55:17.986Z,1016.55
2018-02-27T17:57:19.509Z,1016.56
2018-02-27T17:59:22.341Z,1016.54
2018-02-27T18:02:08.930Z,1016.52
2018-02-27T18:05:18.079Z,1016.47
2018-02-27T18:08:11.792Z,1016.46
2018-02-27T18:11:01.083Z,1016.49
2018-02-27T18:13:46.563Z,1016.48
2018-02-27T18:15:50.404Z,1016.47
2018-02-27T18:18:45.846Z,1016.46
2018-02-27T18:20:53.850Z,1016.38
2018-02-27T18:23:38.656Z,1016.45
2018-02-27T18:25:42.036Z,1016.46
2018-02-27T18:28:26.256Z,1016.42
2018-02-27T18:30:31.467Z,1016.42
2018-02-27T18:33:15.803Z,1016.40
2018-02-27T18:36:22.097Z,1016.38
2018-02-27T18:38:23.946Z,1016.38
2018-02-27T18:41:10.825Z,1016.33
2018-02-27T18:43:13.074Z,1016.35
2018-02-27T18:46:46.124Z,1016.40
2018-02-27T18:48:48.221Z,1016.36
2018-02-27T18:51:41.363Z,1016.34
2018-02-27T18:53:43.132Z,1016.40
2018-02-27T18:55:46.719Z,1016.36
2018-02-27T18:57:48.717Z,1016.38
2018-02-27T18:59:51.536Z,1016.33
2018-02-27T19:02:39.696Z,1016.37
2018-02-27T19:05:26.913Z,1016.40
2018-02-27T19:08:19.287Z,1016.41
2018-02-27T19:11:03.675Z,1016.37
2018-02-27T19:14:17.733Z,1016.41
2018-02-27T19:17:04.934Z,1016.38
2018-02-27T19:19:50.190Z,1016.39
2018-02-27T19:22:46.581Z,1016.43
2018-02-27T19:25:31.712Z,1016.39
2018-02-27T19:28:21.582Z,1016.39
2018-02-27T19:31:14.110Z,1016.40
2018-02-27T19:33:57.821Z,1016.44
2018-02-27T19:37:12.319Z,1016.48
2018-02-27T19:39:14.026Z,1016.47
2018-02-27T19:42:04.474Z,1016.54
2018-02-27T19:44:49.399Z,1016.55
2018-02-27T19:46:55.543Z,1016.51
2018-02-27T19:49:41.194Z,1016.54
2018-02-27T19:52:46.403Z,1016.55
2018-02-27T19:55:41.413Z,1016.54
2018-02-27T19:58:37.983Z,1016.53
2018-02-27T20:01:31.463Z,1016.52
2018-02-27T20:04:16.574Z,1016.47
2018-02-27T20:07:04.198Z,1016.52
2018-02-27T20:10:00.667Z,1016.54
2018-02-27T20:12:46.639Z,1016.51
2018-02-27T20:15:33.195Z,1016.48
2018-02-27T20:18:23.756Z,1016.55
2018-02-27T20:22:02.054Z,1016.52
2018-02-27T20:24:50.762Z,1016.52
2018-02-27T20:27:34.878Z,1016.51
2018-02-27T20:30:28.314Z,1016.54
2018-02-27T20:33:48.029Z,1016.55
2018-02-27T20:35:51.720Z,1016.56
2018-02-27T20:38:38.863Z,1016.54
2018-02-27T20:41:26.387Z,1016.53
2018-02-27T20:44:14.830Z,1016.58
2018-02-27T20:47:06.442Z,1016.58
2018-02-27T20:50:00.033Z,1016.60
2018-02-27T20:52:49.022Z,1016.58
2018-02-27T20:55:40.066Z,1016.59
2018-02-27T20:58:47.872Z,1016.57
2018-02-27T21:01:35.317Z,1016.54
2018-02-27T21:05:24.649Z,1016.54
2018-02-27T21:08:15.933Z,1016.56
2018-02-27T21:11:53.760Z,1016.55
2018-02-27T21:14:55.639Z,1016.60
2018-02-27T21:16:57.877Z,1016.57
2018-02-27T21:18:59.891Z,1016.57
2018-02-27T21:21:17.593Z,1016.61
2018-02-27T21:23:19.533Z,1016.69
2018-02-27T21:25:21.564Z,1016.65
2018-02-27T21:27:23.903Z,1016.66
2018-02-27T21:29:25.881Z,1016.66
2018-02-27T21:32:24.017Z,1016.63
2018-02-27T21:35:17.402Z,1016.63
2018-02-27T21:37:19.579Z,1016.57
2018-02-27T21:39:46.770Z,1016.56
2018-02-27T21:41:48.913Z,1016.57
2018-02-27T21:44:16.939Z,1016.56
2018-02-27T21:46:32.294Z,1016.58
